Saint Barthelemy, St. Barthelemy

1:25 AM AST on December 21, 2014 (GMT -0400)
Lorient | Change Station
CLOSE
Current Station
Personal Weather Station
Location: Saint Barthélémy,
Elevation: 33 ft
Nearby Weather Stations

Elev 33 ft 17.91 °N, 62.82 °W | Updated 9 minutes ago

Mostly Cloudy
Mostly Cloudy
79.2 °F
Feels Like 82 °F
N
11.0
Wind Variable Wind from NNE
Gusts 15.0 mph

Today
High -- | Low -- °F
--% Chance of Precip.
Yesterday
High -- | Low -- °F
Precip. -- in
6:37 AM 5:41 PM
Waning Crescent, 1% visible
Pressure 30.04 in
Visibility 6.2 miles
Clouds Mostly Cloudy 2000 ft
Heat Index 82 °F
Dew Point 70 °F
Humidity 74%
Rainfall 0.00 in
Snow Depth Not available.
UV 0 out of 12
Pollen Not available.
Air Quality Not available.
Flu Activity Not available.
METAR TNCM 210500Z 06009KT 9999 BKN020 26/21 Q1017 A3004

More Conditions Fewer Conditions

Pressure 30.04 in
Visibility 6.2 miles
Clouds Mostly Cloudy 2000 ft
Heat Index 82 °F
Dew Point 70 °F
Humidity 74%
Rainfall 0.00 in
Snow Depth Not available.
UV 0 out of 12
Pollen Not available.
Air Quality Not available.
Flu Activity Not available.
METAR TNCM 210500Z 06009KT 9999 BKN020 26/21 Q1017 A3004

More Conditions Fewer Conditions

10-Day Weather Forecast

Almanac

Astronomy

Dec. 21, 2014 Rise Set
Actual Time
Civil Twilight
Nautical Twilight
Astronomical Twilight
Moon
Length of Visible Light
Length of Day
Tomorrow will be .
, % of the Moon is Illuminated

Today's Extremes

Country Highs Country Lows

Community

WunderPhotos

Upload Photos

1,779,358 photos uploaded!

WunderBlogs® & News

Nearby

Air Quality

  Air Quality AQ Index Pollutant
Not available.

Snow Depth

Station Depth Elevation

Earthquake Activity

City Distance Mag. Time & Date
Minimum magnitude displayed is 2.5.

Coastal Water Temperatures

Place Temperature

Nearby Weather Stations